createdAt,value
2018-03-19T00:00:26.112Z,-3.75
2018-03-19T00:01:26.097Z,-3.75
2018-03-19T00:02:26.106Z,-3.75
2018-03-19T00:03:26.119Z,-3.84
2018-03-19T00:04:26.123Z,-3.80
2018-03-19T00:05:26.135Z,-3.77
2018-03-19T00:06:26.129Z,-3.77
2018-03-19T00:07:26.147Z,-3.91
2018-03-19T00:08:26.151Z,-3.78
2018-03-19T00:09:26.155Z,-3.78
2018-03-19T00:10:26.166Z,-3.78
2018-03-19T00:11:26.175Z,-3.75
2018-03-19T00:12:26.174Z,-3.78
2018-03-19T00:13:26.179Z,-3.81
2018-03-19T00:14:26.210Z,-3.81
2018-03-19T00:15:26.196Z,-3.90
2018-03-19T00:16:26.222Z,-3.84
2018-03-19T00:17:26.206Z,-3.87
2018-03-19T00:18:26.211Z,-3.81
2018-03-19T00:19:26.224Z,-3.83
2018-03-19T00:20:26.228Z,-3.83
2018-03-19T00:21:26.236Z,-3.84
2018-03-19T00:22:26.238Z,-3.81
2018-03-19T00:23:26.243Z,-3.90
2018-03-19T00:24:26.254Z,-3.90
2018-03-19T00:25:26.260Z,-3.80
2018-03-19T00:26:26.269Z,-3.80
2018-03-19T00:27:26.279Z,-3.87
2018-03-19T00:28:26.275Z,-3.85
2018-03-19T00:29:26.287Z,-3.81
2018-03-19T00:30:26.298Z,-3.85
2018-03-19T00:31:26.305Z,-3.81
2018-03-19T00:32:26.310Z,-3.87
2018-03-19T00:33:26.307Z,-3.87
2018-03-19T00:34:26.319Z,-3.84
2018-03-19T00:35:26.327Z,-3.84
2018-03-19T00:36:26.339Z,-3.85
2018-03-19T00:37:26.593Z,-3.81
2018-03-19T00:38:26.338Z,-3.84
2018-03-19T00:39:26.350Z,-3.85
2018-03-19T00:40:26.359Z,-3.84
2018-03-19T00:41:26.367Z,-3.94
2018-03-19T00:42:26.382Z,-3.95
2018-03-19T00:43:26.370Z,-3.94
2018-03-19T00:44:26.380Z,-3.94
2018-03-19T00:45:26.390Z,-3.96
2018-03-19T00:46:26.399Z,-3.99
2018-03-19T00:47:26.560Z,-3.95
2018-03-19T00:48:26.403Z,-3.94
2018-03-19T00:49:26.413Z,-4.04
2018-03-19T00:50:26.425Z,-4.02
2018-03-19T00:51:26.433Z,-4.02
2018-03-19T00:52:26.438Z,-3.91
2018-03-19T00:53:26.435Z,-4.06
2018-03-19T00:54:26.446Z,-4.05
2018-03-19T00:55:26.455Z,-4.06
2018-03-19T00:56:26.464Z,-4.05
2018-03-19T00:57:26.474Z,-4.05
2018-03-19T00:58:26.467Z,-3.98
2018-03-19T00:59:26.475Z,-4.01
2018-03-19T01:00:26.489Z,-4.02
2018-03-19T01:01:26.493Z,-3.91
2018-03-19T01:02:26.502Z,-4.05
2018-03-19T01:03:26.516Z,-4.08
2018-03-19T01:04:26.511Z,-3.99
2018-03-19T01:05:26.521Z,-4.05
2018-03-19T01:06:26.528Z,-3.99
2018-03-19T01:07:26.538Z,-4.05
2018-03-19T01:08:26.544Z,-4.01
2018-03-19T01:09:26.539Z,-4.01
2018-03-19T01:10:26.552Z,-4.12
2018-03-19T01:11:26.556Z,-4.05
2018-03-19T01:12:26.568Z,-4.13
2018-03-19T01:13:26.566Z,-4.08
2018-03-19T01:14:26.573Z,-4.12
2018-03-19T01:15:26.580Z,-4.06
2018-03-19T01:16:26.589Z,-4.08
2018-03-19T01:17:26.602Z,-4.12
2018-03-19T01:18:26.597Z,-4.06
2018-03-19T01:19:26.606Z,-4.19
2018-03-19T01:20:26.616Z,-4.19
2018-03-19T01:21:26.620Z,-4.22
2018-03-19T01:22:26.639Z,-4.24
2018-03-19T01:23:26.629Z,-4.22
2018-03-19T01:24:26.639Z,-4.19
2018-03-19T01:25:26.643Z,-4.30
2018-03-19T01:26:26.656Z,-4.20
2018-03-19T01:27:26.661Z,-4.20
2018-03-19T01:28:26.661Z,-4.23
2018-03-19T01:29:26.670Z,-4.26
2018-03-19T01:30:26.676Z,-4.38
2018-03-19T01:31:26.691Z,-4.41
2018-03-19T01:32:26.697Z,-4.33
2018-03-19T01:33:26.689Z,-4.33
2018-03-19T01:34:26.698Z,-4.30
2018-03-19T01:35:26.707Z,-4.34
2018-03-19T01:36:26.717Z,-4.35
2018-03-19T01:37:26.714Z,-4.38
2018-03-19T01:38:26.720Z,-4.44
2018-03-19T01:39:26.729Z,-4.35
2018-03-19T01:40:26.739Z,-4.35
2018-03-19T01:41:26.748Z,-4.41
2018-03-19T01:42:26.750Z,-4.38
2018-03-19T01:43:26.753Z,-4.44
2018-03-19T01:44:26.766Z,-4.42
2018-03-19T01:45:26.778Z,-4.47
2018-03-19T01:46:26.780Z,-4.42
2018-03-19T01:47:26.776Z,-4.52
2018-03-19T01:48:26.788Z,-4.53
2018-03-19T01:49:26.796Z,-4.51
2018-03-19T01:50:26.803Z,-4.51
2018-03-19T01:51:26.815Z,-4.55
2018-03-19T01:52:26.807Z,-4.55
2018-03-19T01:53:26.816Z,-4.59
2018-03-19T01:54:26.837Z,-4.55
2018-03-19T01:55:26.839Z,-4.47
2018-03-19T01:56:26.847Z,-4.53
2018-03-19T01:57:26.839Z,-4.58
2018-03-19T01:58:26.849Z,-4.61
2018-03-19T01:59:26.856Z,-4.58
2018-03-19T02:00:26.872Z,-4.58
2018-03-19T02:01:26.863Z,-4.52
2018-03-19T02:02:26.871Z,-4.59
2018-03-19T02:03:26.882Z,-4.62
2018-03-19T02:04:26.889Z,-4.61
2018-03-19T02:05:26.891Z,-4.69
2018-03-19T02:06:26.899Z,-4.62
2018-03-19T02:07:26.906Z,-4.62
2018-03-19T02:08:26.911Z,-4.62
2018-03-19T02:09:26.921Z,-4.67
2018-03-19T02:10:26.920Z,-4.69
2018-03-19T02:11:26.934Z,-4.67
2018-03-19T02:12:26.938Z,-4.70
2018-03-19T02:13:26.948Z,-4.74
2018-03-19T02:14:26.946Z,-4.65
2018-03-19T02:15:26.951Z,-4.71
2018-03-19T02:16:26.962Z,-4.71
2018-03-19T02:17:26.968Z,-4.71
2018-03-19T02:18:26.977Z,-4.76
2018-03-19T02:19:26.980Z,-4.70
2018-03-19T02:20:26.984Z,-4.74
2018-03-19T02:21:26.990Z,-4.79
2018-03-19T02:22:27.003Z,-4.77
2018-03-19T02:23:27.001Z,-4.74
2018-03-19T02:24:27.006Z,-4.77
2018-03-19T02:25:27.013Z,-4.76
2018-03-19T02:26:27.023Z,-4.74
2018-03-19T02:27:27.035Z,-4.81
2018-03-19T02:28:27.028Z,-4.80
2018-03-19T02:29:27.040Z,-4.84
2018-03-19T02:30:27.046Z,-4.76
2018-03-19T02:31:27.055Z,-4.71
2018-03-19T02:32:27.053Z,-4.84
2018-03-19T02:33:27.063Z,-4.80
2018-03-19T02:34:27.069Z,-4.80
2018-03-19T02:35:27.081Z,-4.81
2018-03-19T02:36:27.078Z,-4.83
2018-03-19T02:37:27.084Z,-4.83
2018-03-19T02:38:27.105Z,-4.83
2018-03-19T02:39:27.104Z,-4.90
2018-03-19T02:40:27.112Z,-4.88
2018-03-19T02:41:27.105Z,-4.81
2018-03-19T02:42:27.122Z,-4.77
2018-03-19T02:43:27.138Z,-4.88
2018-03-19T02:44:27.134Z,-4.81
2018-03-19T02:45:27.134Z,-4.79
2018-03-19T02:46:27.137Z,-4.81
2018-03-19T02:47:27.149Z,-4.83
2018-03-19T02:48:27.160Z,-4.84
2018-03-19T02:49:27.153Z,-4.81
2018-03-19T02:50:27.164Z,-4.83
2018-03-19T02:51:27.171Z,-4.88
2018-03-19T02:52:27.179Z,-4.79
2018-03-19T02:53:27.191Z,-4.94
2018-03-19T02:54:27.187Z,-4.92
2018-03-19T02:55:27.212Z,-4.80
2018-03-19T02:56:27.205Z,-4.88
2018-03-19T02:57:27.214Z,-4.80
2018-03-19T02:58:27.207Z,-5.00
2018-03-19T02:59:27.216Z,-4.87
2018-03-19T03:00:27.226Z,-4.90
2018-03-19T03:01:27.237Z,-4.87
2018-03-19T03:02:27.230Z,-4.88
2018-03-19T03:03:27.242Z,-4.80
2018-03-19T03:04:27.255Z,-4.91
2018-03-19T03:05:27.261Z,-4.91
2018-03-19T03:06:27.259Z,-4.92
2018-03-19T03:07:27.263Z,-4.91
2018-03-19T03:08:27.274Z,-4.95
2018-03-19T03:09:27.282Z,-4.84
2018-03-19T03:10:27.278Z,-5.01
2018-03-19T03:11:27.285Z,-4.97
2018-03-19T03:12:27.293Z,-4.98
2018-03-19T03:13:27.308Z,-4.98
2018-03-19T03:14:27.303Z,-5.05
2018-03-19T03:15:27.312Z,-5.05
2018-03-19T03:16:27.318Z,-4.95
2018-03-19T03:17:27.326Z,-5.02
2018-03-19T03:18:27.335Z,-5.02
2018-03-19T03:19:27.330Z,-5.01
2018-03-19T03:20:27.339Z,-5.08
2018-03-19T03:21:27.350Z,-5.09
2018-03-19T03:22:27.361Z,-5.05
2018-03-19T03:23:27.369Z,-5.08
2018-03-19T03:24:27.363Z,-5.16
2018-03-19T03:25:27.374Z,-5.12
2018-03-19T03:26:27.384Z,-5.02
2018-03-19T03:27:27.376Z,-5.05
2018-03-19T03:28:27.387Z,-4.95
2018-03-19T03:29:27.396Z,-5.05
2018-03-19T03:30:27.408Z,-5.10
2018-03-19T03:31:27.402Z,-5.00
2018-03-19T03:32:27.409Z,-5.05
2018-03-19T03:33:27.417Z,-5.05
2018-03-19T03:34:27.433Z,-5.09
2018-03-19T03:35:27.424Z,-5.12
2018-03-19T03:36:27.433Z,-5.19
2018-03-19T03:37:27.444Z,-5.17
2018-03-19T03:38:27.450Z,-5.12
2018-03-19T03:39:27.447Z,-5.09
2018-03-19T03:40:27.459Z,-5.12
2018-03-19T03:41:27.468Z,-5.16
2018-03-19T03:42:27.472Z,-5.05
2018-03-19T03:43:27.470Z,-5.06
2018-03-19T03:44:27.477Z,-5.10
2018-03-19T03:45:27.492Z,-5.02
2018-03-19T03:46:27.496Z,-5.00
2018-03-19T03:47:27.493Z,-5.10
2018-03-19T03:48:27.501Z,-5.08
2018-03-19T03:49:27.510Z,-5.12
2018-03-19T03:50:27.520Z,-5.09
2018-03-19T03:51:27.520Z,-5.20
2018-03-19T03:52:27.523Z,-5.19
2018-03-19T03:53:27.533Z,-5.17
2018-03-19T03:54:27.547Z,-5.13
2018-03-19T03:55:27.540Z,-5.12
2018-03-19T03:56:27.550Z,-5.06
2018-03-19T03:57:27.555Z,-5.16
2018-03-19T03:58:27.576Z,-5.06
2018-03-19T03:59:27.570Z,-5.09
2018-03-19T04:00:27.574Z,-5.17
2018-03-19T04:01:27.580Z,-5.16
2018-03-19T04:02:27.588Z,-5.12
2018-03-19T04:03:27.586Z,-5.06
2018-03-19T04:04:27.597Z,-5.09
2018-03-19T04:05:27.604Z,-5.12
2018-03-19T04:06:27.611Z,-5.20
2018-03-19T04:07:27.608Z,-5.13
2018-03-19T04:08:27.618Z,-5.10
2018-03-19T04:09:27.624Z,-5.10
2018-03-19T04:10:27.633Z,-5.17
2018-03-19T04:11:27.631Z,-5.20
2018-03-19T04:12:27.638Z,-5.12
2018-03-19T04:13:27.649Z,-5.12
2018-03-19T04:14:27.659Z,-5.10
2018-03-19T04:15:27.655Z,-5.10
2018-03-19T04:16:27.662Z,-4.98
2018-03-19T04:17:27.671Z,-5.16
2018-03-19T04:18:27.680Z,-5.09
2018-03-19T04:19:27.690Z,-5.10
2018-03-19T04:20:27.697Z,-5.19
2018-03-19T04:21:27.695Z,-5.20
2018-03-19T04:22:27.703Z,-5.17
2018-03-19T04:23:27.700Z,-5.10
2018-03-19T04:24:27.712Z,-5.19
2018-03-19T04:25:27.717Z,-5.05
2018-03-19T04:26:27.729Z,-5.16
2018-03-19T04:27:27.722Z,-5.20
2018-03-19T04:28:27.734Z,-5.09
2018-03-19T04:29:27.753Z,-5.16
2018-03-19T04:30:27.753Z,-5.20
2018-03-19T04:31:27.747Z,-5.20
2018-03-19T04:32:27.755Z,-5.21
2018-03-19T04:33:27.764Z,-5.17
2018-03-19T04:34:27.775Z,-5.20
2018-03-19T04:35:27.773Z,-5.27
2018-03-19T04:36:27.777Z,-5.16
2018-03-19T04:37:27.791Z,-5.31
2018-03-19T04:38:27.798Z,-5.30
2018-03-19T04:39:27.804Z,-5.32
2018-03-19T04:40:27.801Z,-5.32
2018-03-19T04:41:27.810Z,-5.31
2018-03-19T04:42:27.818Z,-5.32
2018-03-19T04:43:27.819Z,-5.30
2018-03-19T04:44:27.832Z,-5.32
2018-03-19T04:45:27.837Z,-5.19
2018-03-19T04:46:27.841Z,-5.31
2018-03-19T04:47:27.839Z,-5.28
2018-03-19T04:48:27.846Z,-5.32
2018-03-19T04:49:27.856Z,-5.27
2018-03-19T04:50:27.867Z,-5.39
2018-03-19T04:51:27.861Z,-5.32
2018-03-19T04:52:27.870Z,-5.39
2018-03-19T04:53:27.891Z,-5.43
2018-03-19T04:54:27.876Z,-5.39
2018-03-19T04:55:27.885Z,-5.37
2018-03-19T04:56:27.893Z,-5.38
2018-03-19T04:57:27.902Z,-5.34
2018-03-19T04:58:27.903Z,-5.41
2018-03-19T04:59:27.910Z,-5.35
2018-03-19T05:00:27.918Z,-5.41
2018-03-19T05:01:27.928Z,-5.39
2018-03-19T05:02:27.922Z,-5.43
2018-03-19T05:03:27.958Z,-5.45
2018-03-19T05:04:27.939Z,-5.49
2018-03-19T05:05:27.949Z,-5.46
2018-03-19T05:06:27.946Z,-5.46
2018-03-19T05:07:27.954Z,-5.41
2018-03-19T05:08:27.966Z,-5.41
2018-03-19T05:09:27.976Z,-5.48
2018-03-19T05:10:27.972Z,-5.48
2018-03-19T05:11:27.977Z,-5.50
2018-03-19T05:12:27.985Z,-5.52
2018-03-19T05:13:27.986Z,-5.49
2018-03-19T05:14:27.998Z,-5.55
2018-03-19T05:15:28.013Z,-5.52
2018-03-19T05:16:28.009Z,-5.58
2018-03-19T05:17:28.009Z,-5.59
2018-03-19T05:18:28.013Z,-5.64
2018-03-19T05:19:28.026Z,-5.59
2018-03-19T05:20:28.030Z,-5.64
2018-03-19T05:21:28.027Z,-5.63
2018-03-19T05:22:28.038Z,-5.58
2018-03-19T05:23:28.045Z,-5.70
2018-03-19T05:24:28.058Z,-5.68
2018-03-19T05:25:28.053Z,-5.63
2018-03-19T05:26:28.060Z,-5.66
2018-03-19T05:27:28.072Z,-5.55
2018-03-19T05:28:28.078Z,-5.60
2018-03-19T05:29:28.074Z,-5.59
2018-03-19T05:30:28.083Z,-5.55
2018-03-19T05:31:28.099Z,-5.59
2018-03-19T05:32:28.101Z,-5.55
2018-03-19T05:33:28.097Z,-5.58
2018-03-19T05:34:28.105Z,-5.55
2018-03-19T05:35:28.118Z,-5.52
2018-03-19T05:36:28.127Z,-5.52
2018-03-19T05:37:28.119Z,-5.46
2018-03-19T05:38:28.132Z,-5.48
2018-03-19T05:39:28.137Z,-5.50
2018-03-19T05:40:28.139Z,-5.46
2018-03-19T05:41:28.154Z,-5.46
2018-03-19T05:42:28.152Z,-5.48
2018-03-19T05:43:28.163Z,-5.41
2018-03-19T05:44:28.160Z,-5.46
2018-03-19T05:45:28.170Z,-5.49
2018-03-19T05:46:28.179Z,-5.46
2018-03-19T05:47:28.182Z,-5.48
2018-03-19T05:48:28.184Z,-5.48
2018-03-19T05:49:28.194Z,-5.49
2018-03-19T05:50:28.197Z,-5.52
2018-03-19T05:51:28.211Z,-5.50
2018-03-19T05:52:28.207Z,-5.50
2018-03-19T05:53:28.212Z,-5.58
2018-03-19T05:54:28.221Z,-5.49
2018-03-19T05:55:28.243Z,-5.46
2018-03-19T05:56:28.229Z,-5.46
2018-03-19T05:57:28.235Z,-5.45
2018-03-19T05:58:28.244Z,-5.49
2018-03-19T05:59:28.253Z,-5.46
2018-03-19T06:00:28.249Z,-5.52
2018-03-19T06:01:28.263Z,-5.48
2018-03-19T06:02:28.272Z,-5.45
2018-03-19T06:03:28.277Z,-5.49
2018-03-19T06:04:28.276Z,-5.46
2018-03-19T06:05:28.281Z,-5.45
2018-03-19T06:06:28.294Z,-5.50
2018-03-19T06:07:28.302Z,-5.41
2018-03-19T06:08:28.301Z,-5.45
2018-03-19T06:09:28.305Z,-5.37
2018-03-19T06:10:28.345Z,-5.41
2018-03-19T06:11:28.329Z,-5.39
2018-03-19T06:12:28.323Z,-5.34
2018-03-19T06:13:28.328Z,-5.46
2018-03-19T06:14:28.343Z,-5.30
2018-03-19T06:15:28.345Z,-5.34
2018-03-19T06:16:28.357Z,-5.32
2018-03-19T06:17:28.366Z,-5.31
2018-03-19T06:18:28.358Z,-5.28
2018-03-19T06:19:28.370Z,-5.31
2018-03-19T06:20:28.365Z,-5.20
2018-03-19T06:21:28.374Z,-5.12
2018-03-19T06:22:28.383Z,-5.13
2018-03-19T06:23:28.392Z,-5.06
2018-03-19T06:24:28.389Z,-5.12
2018-03-19T06:25:28.396Z,-5.09
2018-03-19T06:26:28.410Z,-5.00
2018-03-19T06:27:28.413Z,-5.02
2018-03-19T06:28:28.421Z,-4.95
2018-03-19T06:29:28.419Z,-5.01
2018-03-19T06:30:28.435Z,-5.00
2018-03-19T06:31:28.446Z,-4.95
2018-03-19T06:32:28.446Z,-5.01
2018-03-19T06:33:28.442Z,-4.97
2018-03-19T06:34:28.456Z,-4.80
2018-03-19T06:35:28.459Z,-4.80
2018-03-19T06:36:28.474Z,-4.80
2018-03-19T06:37:28.466Z,-4.84
2018-03-19T06:38:28.474Z,-4.87
2018-03-19T06:39:28.485Z,-4.76
2018-03-19T06:40:28.505Z,-4.80
2018-03-19T06:41:28.494Z,-4.63
2018-03-19T06:42:28.496Z,-4.74
2018-03-19T06:43:28.511Z,-4.63
2018-03-19T06:44:28.516Z,-4.76
2018-03-19T06:45:28.540Z,-4.67
2018-03-19T06:46:28.520Z,-4.65
2018-03-19T06:47:28.529Z,-4.59
2018-03-19T06:48:28.542Z,-4.53
2018-03-19T06:49:28.551Z,-4.52
2018-03-19T06:50:28.560Z,-4.42
2018-03-19T06:51:28.552Z,-4.41
2018-03-19T06:52:28.561Z,-4.37
2018-03-19T06:53:28.570Z,-4.38
2018-03-19T06:54:28.581Z,-4.37
2018-03-19T06:55:28.593Z,-4.38
2018-03-19T06:56:28.588Z,-4.31
2018-03-19T06:57:28.593Z,-4.30
2018-03-19T06:58:28.605Z,-4.23
2018-03-19T06:59:28.615Z,-4.17
2018-03-19T07:00:28.652Z,-4.19
2018-03-19T07:01:28.616Z,-4.22
2018-03-19T07:02:28.630Z,-4.16
2018-03-19T07:03:28.634Z,-4.17
2018-03-19T07:04:28.642Z,-4.22
2018-03-19T07:05:28.644Z,-4.23
2018-03-19T07:06:28.676Z,-4.05
2018-03-19T07:07:28.661Z,-4.08
2018-03-19T07:08:28.670Z,-4.06
2018-03-19T07:09:28.674Z,-3.99
2018-03-19T07:10:28.675Z,-4.02
2018-03-19T07:11:28.707Z,-4.04
2018-03-19T07:12:28.690Z,-4.04
2018-03-19T07:13:28.702Z,-3.99
2018-03-19T07:14:28.711Z,-3.90
2018-03-19T07:15:28.716Z,-3.85
2018-03-19T07:16:28.712Z,-3.81
2018-03-19T07:17:28.725Z,-3.95
2018-03-19T07:18:28.735Z,-3.81
2018-03-19T07:19:28.742Z,-3.81
2018-03-19T07:20:28.756Z,-3.80
2018-03-19T07:21:28.749Z,-3.75
2018-03-19T07:22:28.761Z,-3.65
2018-03-19T07:23:28.762Z,-3.65
2018-03-19T07:24:28.775Z,-3.47
2018-03-19T07:25:28.784Z,-3.37
2018-03-19T07:26:28.789Z,-3.19
2018-03-19T07:27:28.789Z,-3.12
2018-03-19T07:28:28.793Z,-3.01
2018-03-19T07:29:28.804Z,-2.83
2018-03-19T07:30:28.816Z,-2.61
2018-03-19T07:31:28.824Z,-2.65
2018-03-19T07:32:28.829Z,-2.57
2018-03-19T07:33:28.843Z,-2.51
2018-03-19T07:34:28.864Z,-2.44
2018-03-19T07:35:28.847Z,-2.34
2018-03-19T07:36:28.857Z,-2.34
2018-03-19T07:37:28.864Z,-2.42
2018-03-19T07:38:28.869Z,-2.37
2018-03-19T07:39:28.879Z,-2.33
2018-03-19T07:40:28.889Z,-2.28
2018-03-19T07:41:28.897Z,-2.25
2018-03-19T07:42:28.896Z,-2.26
2018-03-19T07:43:28.901Z,-2.17
2018-03-19T07:44:28.910Z,-2.23
2018-03-19T07:45:28.920Z,-2.11
2018-03-19T07:46:28.932Z,-2.23
2018-03-19T07:47:28.937Z,-2.15
2018-03-19T07:48:28.950Z,-2.13
2018-03-19T07:49:28.955Z,-2.20
2018-03-19T07:50:28.965Z,-2.25
2018-03-19T07:51:28.975Z,-2.28
2018-03-19T07:52:28.981Z,-2.22
2018-03-19T07:53:28.982Z,-2.23
2018-03-19T07:54:28.992Z,-2.23
2018-03-19T07:55:29.000Z,-2.33
2018-03-19T07:56:29.009Z,-2.33
2018-03-19T07:57:29.013Z,-2.34
2018-03-19T07:58:29.028Z,-2.36
2018-03-19T07:59:29.033Z,-2.29
2018-03-19T08:00:29.044Z,-2.33
2018-03-19T08:01:29.049Z,-2.23
2018-03-19T08:02:29.047Z,-2.26
2018-03-19T08:03:29.055Z,-2.28
2018-03-19T08:04:29.067Z,-2.33
2018-03-19T08:05:29.072Z,-2.33
2018-03-19T08:06:29.085Z,-2.17
2018-03-19T08:07:29.091Z,-2.23
2018-03-19T08:08:29.102Z,-2.20
2018-03-19T08:09:29.108Z,-2.17
2018-03-19T08:10:29.121Z,-2.14
2018-03-19T08:11:29.130Z,-2.11
2018-03-19T08:12:29.135Z,-2.10
2018-03-19T08:13:29.131Z,-2.14
2018-03-19T08:14:29.179Z,-2.11
2018-03-19T08:15:29.150Z,-2.04
2018-03-19T08:16:29.158Z,-2.07
2018-03-19T08:17:29.168Z,-2.00
2018-03-19T08:18:29.176Z,-2.00
2018-03-19T08:19:29.183Z,-1.96
2018-03-19T08:20:29.198Z,-1.89
2018-03-19T08:21:29.203Z,-1.81
2018-03-19T08:22:29.211Z,-1.87
2018-03-19T08:23:29.222Z,-1.81
2018-03-19T08:24:29.234Z,-1.75
2018-03-19T08:25:29.229Z,-1.74
2018-03-19T08:26:29.238Z,-1.84
2018-03-19T08:27:29.250Z,-1.81
2018-03-19T08:28:29.254Z,-1.64
2018-03-19T08:29:29.261Z,-1.61
2018-03-19T08:30:29.271Z,-1.66
2018-03-19T08:31:29.278Z,-1.68
2018-03-19T08:32:29.289Z,-1.58
2018-03-19T08:33:29.305Z,-1.58
2018-03-19T08:34:29.306Z,-1.54
2018-03-19T08:35:29.315Z,-1.56
2018-03-19T08:36:29.327Z,-1.48
2018-03-19T08:37:29.333Z,-1.45
2018-03-19T08:38:29.344Z,-1.45
2018-03-19T08:39:29.392Z,-1.45
2018-03-19T08:40:29.355Z,-1.35
2018-03-19T08:41:29.359Z,-1.33
2018-03-19T08:42:29.364Z,-1.29
2018-03-19T08:43:29.374Z,-1.19
2018-03-19T08:44:29.382Z,-1.29
2018-03-19T08:45:29.407Z,-1.21
2018-03-19T08:46:29.403Z,-1.21
2018-03-19T08:47:29.424Z,-1.21
2018-03-19T08:48:29.417Z,-1.21
2018-03-19T08:49:29.428Z,-1.09
2018-03-19T08:50:29.436Z,-1.03
2018-03-19T08:51:29.445Z,-1.00
2018-03-19T08:52:29.452Z,-1.00
2018-03-19T08:53:29.460Z,-0.94
2018-03-19T08:54:29.471Z,-0.87
2018-03-19T08:55:29.516Z,-0.89
2018-03-19T08:56:29.488Z,-0.82
2018-03-19T08:57:29.497Z,-0.84
2018-03-19T08:58:29.507Z,-0.89
2018-03-19T08:59:29.519Z,-0.85
2018-03-19T09:00:29.527Z,-0.70
2018-03-19T09:01:29.537Z,-0.80
2018-03-19T09:02:29.547Z,-0.70
2018-03-19T09:03:29.554Z,-0.74
2018-03-19T09:04:29.560Z,-0.67
2018-03-19T09:05:29.568Z,-0.66
2018-03-19T09:06:29.577Z,-0.64
2018-03-19T09:07:29.593Z,-0.59
2018-03-19T09:08:29.599Z,-0.57
2018-03-19T09:09:29.607Z,-0.59
2018-03-19T09:10:29.615Z,-0.59
2018-03-19T09:11:29.624Z,-0.54
2018-03-19T09:12:29.631Z,-0.59
2018-03-19T09:13:29.643Z,-0.56
2018-03-19T09:14:29.652Z,-0.49
2018-03-19T09:15:29.660Z,-0.44
2018-03-19T09:16:29.673Z,-0.39
2018-03-19T09:17:29.675Z,-0.44
2018-03-19T09:18:29.685Z,-0.33
2018-03-19T09:19:29.697Z,-0.30
2018-03-19T09:20:29.706Z,-0.35
2018-03-19T09:21:29.715Z,-0.24
2018-03-19T09:22:29.724Z,-0.27
2018-03-19T09:23:29.731Z,-0.31
2018-03-19T09:24:29.737Z,-0.23
2018-03-19T09:25:29.746Z,-0.24
2018-03-19T09:26:29.760Z,-0.09
2018-03-19T09:27:29.765Z,-0.07
2018-03-19T09:28:29.777Z,-0.07
2018-03-19T09:29:29.784Z,-0.12
2018-03-19T09:30:29.794Z,0.02
2018-03-19T09:31:29.799Z,0.06
2018-03-19T09:32:29.808Z,0.08
2018-03-19T09:33:29.817Z,0.06
2018-03-19T09:34:29.826Z,0.02
2018-03-19T09:35:29.834Z,0.00
2018-03-19T09:36:29.847Z,0.13
2018-03-19T09:37:29.858Z,0.18
2018-03-19T09:38:29.863Z,0.15
2018-03-19T09:39:29.870Z,0.26
2018-03-19T09:40:29.880Z,0.20
2018-03-19T09:41:29.888Z,0.16
2018-03-19T09:42:29.898Z,0.26
2018-03-19T09:43:29.906Z,0.23
2018-03-19T09:44:29.915Z,0.19
2018-03-19T09:45:29.923Z,0.20
2018-03-19T09:46:29.932Z,0.26
2018-03-19T09:47:29.957Z,0.27
2018-03-19T09:48:29.951Z,0.31
2018-03-19T09:49:29.963Z,0.27
2018-03-19T09:50:29.978Z,0.26
2018-03-19T09:51:29.978Z,0.30
2018-03-19T09:52:29.989Z,0.33
2018-03-19T09:53:30.001Z,0.33
2018-03-19T09:54:30.008Z,0.33
2018-03-19T09:55:30.022Z,0.33
2018-03-19T09:56:30.039Z,0.40
2018-03-19T09:57:30.043Z,0.37
2018-03-19T09:58:30.056Z,0.42
2018-03-19T09:59:30.061Z,0.40
2018-03-19T10:00:30.070Z,0.42
2018-03-19T10:01:30.079Z,0.49
2018-03-19T10:02:30.091Z,0.51
2018-03-19T10:03:30.096Z,0.51
2018-03-19T10:04:30.104Z,0.59
2018-03-19T10:05:30.114Z,0.61
2018-03-19T10:06:30.127Z,0.58
2018-03-19T10:07:30.132Z,0.59
2018-03-19T10:08:30.140Z,0.66
2018-03-19T10:09:30.149Z,0.67
2018-03-19T10:10:30.171Z,0.76
2018-03-19T10:11:30.177Z,0.70
2018-03-19T10:12:30.175Z,0.73
2018-03-19T10:13:30.189Z,0.76
2018-03-19T10:14:30.198Z,0.74
2018-03-19T10:15:30.203Z,0.77
2018-03-19T10:16:30.224Z,0.76
2018-03-19T10:17:30.237Z,0.73
2018-03-19T10:18:30.242Z,0.77
2018-03-19T10:19:30.251Z,0.77
2018-03-19T10:20:30.266Z,0.73
2018-03-19T10:21:30.336Z,0.78
2018-03-19T10:22:30.278Z,0.78
2018-03-19T10:23:30.287Z,0.85
2018-03-19T10:24:30.299Z,0.92
2018-03-19T10:25:30.308Z,1.06
2018-03-19T10:26:30.315Z,1.02
2018-03-19T10:27:30.327Z,1.04
2018-03-19T10:28:30.334Z,1.04
2018-03-19T10:29:30.342Z,1.04
2018-03-19T10:30:30.362Z,1.04
2018-03-19T10:31:30.369Z,1.06
2018-03-19T10:32:30.378Z,1.02
2018-03-19T10:33:30.392Z,1.04
2018-03-19T10:34:30.400Z,1.06
2018-03-19T10:35:30.409Z,1.02
2018-03-19T10:36:30.414Z,1.04
2018-03-19T10:37:30.428Z,1.18
2018-03-19T10:38:30.432Z,1.13
2018-03-19T10:39:30.446Z,1.21
2018-03-19T10:40:30.450Z,1.13
2018-03-19T10:41:30.458Z,1.27
2018-03-19T10:42:30.470Z,1.20
2018-03-19T10:43:30.492Z,1.27
2018-03-19T10:44:30.563Z,1.27
2018-03-19T10:45:30.513Z,1.27
2018-03-19T10:46:30.517Z,1.36
2018-03-19T10:47:30.524Z,1.36
2018-03-19T10:48:30.540Z,1.38
2018-03-19T10:49:30.545Z,1.34
2018-03-19T10:50:30.556Z,1.38
2018-03-19T10:51:30.569Z,1.34
2018-03-19T10:52:30.584Z,1.46
2018-03-19T10:53:30.595Z,1.32
2018-03-19T10:54:30.599Z,1.39
2018-03-19T10:55:30.611Z,1.49
2018-03-19T10:56:30.617Z,1.56
2018-03-19T10:57:30.632Z,1.49
2018-03-19T10:58:30.634Z,1.48
2018-03-19T10:59:30.644Z,1.63
2018-03-19T11:00:30.652Z,1.52
2018-03-19T11:01:30.663Z,1.58
2018-03-19T11:02:30.685Z,1.64
2018-03-19T11:03:30.696Z,1.63
2018-03-19T11:04:30.705Z,1.61
2018-03-19T11:05:30.714Z,1.67
2018-03-19T11:06:30.720Z,1.78
2018-03-19T11:07:30.728Z,1.79
2018-03-19T11:08:30.736Z,1.78
2018-03-19T11:09:30.751Z,1.81
2018-03-19T11:10:30.767Z,1.82
2018-03-19T11:11:30.775Z,1.89
2018-03-19T11:12:30.787Z,1.86
2018-03-19T11:13:30.793Z,1.92
2018-03-19T11:14:30.805Z,1.93
2018-03-19T11:15:30.815Z,1.84
2018-03-19T11:16:30.824Z,1.97
2018-03-19T11:17:30.865Z,1.92
2018-03-19T11:18:30.850Z,1.89
2018-03-19T11:19:30.859Z,1.92
2018-03-19T11:20:30.873Z,2.00
2018-03-19T11:21:30.876Z,1.97
2018-03-19T11:22:30.889Z,1.98
2018-03-19T11:23:30.898Z,2.01
2018-03-19T11:24:30.905Z,2.03
2018-03-19T11:25:30.917Z,2.03
2018-03-19T11:26:30.934Z,2.04
2018-03-19T11:27:30.945Z,1.97
2018-03-19T11:28:30.966Z,2.03
2018-03-19T11:29:30.961Z,2.05
2018-03-19T11:30:30.974Z,2.08
2018-03-19T11:31:30.978Z,2.12
2018-03-19T11:32:31.001Z,2.07
2018-03-19T11:33:31.013Z,2.04
2018-03-19T11:34:31.021Z,2.10
2018-03-19T11:35:31.029Z,2.05
2018-03-19T11:36:31.041Z,2.18
2018-03-19T11:37:31.044Z,2.21
2018-03-19T11:38:31.056Z,2.12
2018-03-19T11:39:31.075Z,2.07
2018-03-19T11:40:31.083Z,2.21
2018-03-19T11:41:31.092Z,2.23
2018-03-19T11:42:31.101Z,2.23
2018-03-19T11:43:31.113Z,2.25
2018-03-19T11:44:31.119Z,2.30
2018-03-19T11:45:31.141Z,2.26
2018-03-19T11:46:31.150Z,2.34
2018-03-19T11:47:31.161Z,2.41
2018-03-19T11:48:31.170Z,2.41
2018-03-19T11:49:31.203Z,2.33
2018-03-19T11:50:31.190Z,2.43
2018-03-19T11:51:31.206Z,2.41
2018-03-19T11:52:31.218Z,2.43
2018-03-19T11:53:31.226Z,2.37
2018-03-19T11:54:31.233Z,2.39
2018-03-19T11:55:31.246Z,2.39
2018-03-19T11:56:31.259Z,2.46
2018-03-19T11:57:31.286Z,2.39
2018-03-19T11:58:31.285Z,2.33
2018-03-19T11:59:31.290Z,2.37
2018-03-19T12:00:31.303Z,2.37
2018-03-19T12:01:31.308Z,2.57
2018-03-19T12:02:31.318Z,2.51
2018-03-19T12:03:31.337Z,2.47
2018-03-19T12:04:31.346Z,2.62
2018-03-19T12:05:31.356Z,2.58
2018-03-19T12:06:31.372Z,2.61
2018-03-19T12:07:31.374Z,2.62
2018-03-19T12:08:31.384Z,2.59
2018-03-19T12:09:31.403Z,2.51
2018-03-19T12:10:31.417Z,2.59
2018-03-19T12:11:31.433Z,2.65
2018-03-19T12:12:31.432Z,2.61
2018-03-19T12:13:31.438Z,2.70
2018-03-19T12:14:31.460Z,2.75
2018-03-19T12:15:31.474Z,2.70
2018-03-19T12:16:31.482Z,2.69
2018-03-19T12:17:31.487Z,2.61
2018-03-19T12:18:31.495Z,2.64
2018-03-19T12:19:31.518Z,2.64
2018-03-19T12:20:31.530Z,2.62
2018-03-19T12:21:31.536Z,2.64
2018-03-19T12:22:31.543Z,2.72
2018-03-19T12:23:31.554Z,2.69
2018-03-19T12:24:31.563Z,2.72
2018-03-19T12:25:31.583Z,2.75
2018-03-19T12:26:31.594Z,2.82
2018-03-19T12:27:31.609Z,2.90
2018-03-19T12:28:31.622Z,2.95
2018-03-19T12:29:31.623Z,2.91
2018-03-19T12:30:31.641Z,2.97
2018-03-19T12:31:31.650Z,3.01
2018-03-19T12:32:31.658Z,2.95
2018-03-19T12:33:31.666Z,3.06
2018-03-19T12:34:31.677Z,3.00
2018-03-19T12:35:31.697Z,3.06
2018-03-19T12:36:31.718Z,3.09
2018-03-19T12:37:31.715Z,3.01
2018-03-19T12:38:31.723Z,3.06
2018-03-19T12:39:31.736Z,3.06
2018-03-19T12:40:31.758Z,3.06
2018-03-19T12:41:31.763Z,3.16
2018-03-19T12:42:31.771Z,3.18
2018-03-19T12:43:31.781Z,3.15
2018-03-19T12:44:31.791Z,3.16
2018-03-19T12:45:31.815Z,3.27
2018-03-19T12:46:31.822Z,3.26
2018-03-19T12:47:31.830Z,3.31
2018-03-19T12:48:31.837Z,3.22
2018-03-19T12:49:31.860Z,3.29
2018-03-19T12:50:31.868Z,3.27
2018-03-19T12:51:31.880Z,3.33
2018-03-19T12:52:31.890Z,3.19
2018-03-19T12:53:31.895Z,3.27
2018-03-19T12:54:31.919Z,3.22
2018-03-19T12:55:31.929Z,3.29
2018-03-19T12:56:31.933Z,3.27
2018-03-19T12:57:31.942Z,3.29
2018-03-19T12:58:31.970Z,3.36
2018-03-19T12:59:31.973Z,3.41